Terminal Aerodrome Forecast
Issued by NWS

Home | Current Version | Previous Version | Text Only | Print | Product List | Glossary On
Versions: 1 2 3 4 5 6 7 8 9 10 11 12 13 14
000
FTUS46 KSEW 250500
TAFCLM
TAF
KCLM 250526Z 2506/2606 27008KT P6SM SCT030 BKN045 BKN070
     FM260300 27008KT P6SM FEW030 SCT050 BKN100=

USA.gov is the U.S. government's official web portal to all federal, state and local government web resources and services.